sensor_id;sensor_type;location;lat;lon;timestamp;temperature;humidity
13251;DHT22;6692;50.710;7.180;2023-09-30T00:00:09;15.50;99.90
13251;DHT22;6692;50.710;7.180;2023-09-30T00:02:10;15.50;99.90
13251;DHT22;6692;50.710;7.180;2023-09-30T00:04:11;15.50;99.90
13251;DHT22;6692;50.710;7.180;2023-09-30T00:06:12;15.50;99.90
13251;DHT22;6692;50.710;7.180;2023-09-30T00:08:13;15.50;99.90
13251;DHT22;6692;50.710;7.180;2023-09-30T00:10:14;15.60;99.90
13251;DHT22;6692;50.710;7.180;2023-09-30T00:12:15;15.50;99.90
13251;DHT22;6692;50.710;7.180;2023-09-30T00:14:16;15.50;99.90
13251;DHT22;6692;50.710;7.180;2023-09-30T00:16:16;15.40;99.90
13251;DHT22;6692;50.710;7.180;2023-09-30T00:18:17;15.40;99.90
13251;DHT22;6692;50.710;7.180;2023-09-30T00:20:18;15.30;99.90
13251;DHT22;6692;50.710;7.180;2023-09-30T00:22:19;15.30;99.90
13251;DHT22;6692;50.710;7.180;2023-09-30T00:24:19;15.20;99.90
13251;DHT22;6692;50.710;7.180;2023-09-30T00:26:21;15.10;99.90
13251;DHT22;6692;50.710;7.180;2023-09-30T00:28:22;15.20;99.90
13251;DHT22;6692;50.710;7.180;2023-09-30T00:30:23;15.10;99.90
13251;DHT22;6692;50.710;7.180;2023-09-30T00:32:23;15.20;99.90
13251;DHT22;6692;50.710;7.180;2023-09-30T00:34:24;15.10;99.90
13251;DHT22;6692;50.710;7.180;2023-09-30T00:36:25;15.20;99.90
13251;DHT22;6692;50.710;7.180;2023-09-30T00:38:26;15.10;99.90
13251;DHT22;6692;50.710;7.180;2023-09-30T00:40:26;15.20;99.90
13251;DHT22;6692;50.710;7.180;2023-09-30T00:42:27;15.10;99.90
13251;DHT22;6692;50.710;7.180;2023-09-30T00:44:28;15.10;99.90
13251;DHT22;6692;50.710;7.180;2023-09-30T00:46:30;15.10;99.90
13251;DHT22;6692;50.710;7.180;2023-09-30T00:48:32;15.00;99.90
13251;DHT22;6692;50.710;7.180;2023-09-30T00:50:32;15.00;99.90
13251;DHT22;6692;50.710;7.180;2023-09-30T00:52:33;14.90;99.90
13251;DHT22;6692;50.710;7.180;2023-09-30T00:54:33;14.90;99.90
13251;DHT22;6692;50.710;7.180;2023-09-30T00:56:34;14.90;99.90
13251;DHT22;6692;50.710;7.180;2023-09-30T00:58:35;14.90;99.90
13251;DHT22;6692;50.710;7.180;2023-09-30T01:00:36;14.90;99.90
13251;DHT22;6692;50.710;7.180;2023-09-30T01:02:39;14.80;99.90
13251;DHT22;6692;50.710;7.180;2023-09-30T01:04:39;14.80;99.90
13251;DHT22;6692;50.710;7.180;2023-09-30T01:06:41;14.80;99.90
13251;DHT22;6692;50.710;7.180;2023-09-30T01:08:41;14.80;99.90
13251;DHT22;6692;50.710;7.180;2023-09-30T01:10:42;14.80;99.90
13251;DHT22;6692;50.710;7.180;2023-09-30T01:12:43;14.80;99.90
13251;DHT22;6692;50.710;7.180;2023-09-30T01:14:44;14.70;99.90
13251;DHT22;6692;50.710;7.180;2023-09-30T01:16:45;14.70;99.90
13251;DHT22;6692;50.710;7.180;2023-09-30T01:18:46;14.70;99.90
13251;DHT22;6692;50.710;7.180;2023-09-30T01:20:47;14.70;99.90
13251;DHT22;6692;50.710;7.180;2023-09-30T01:22:48;14.70;99.90
13251;DHT22;6692;50.710;7.180;2023-09-30T01:24:48;14.70;99.90
13251;DHT22;6692;50.710;7.180;2023-09-30T01:26:49;14.60;99.90
13251;DHT22;6692;50.710;7.180;2023-09-30T01:28:50;14.60;99.90
13251;DHT22;6692;50.710;7.180;2023-09-30T01:30:51;14.50;99.90
13251;DHT22;6692;50.710;7.180;2023-09-30T01:32:51;14.60;99.90
13251;DHT22;6692;50.710;7.180;2023-09-30T01:34:52;14.60;99.90
13251;DHT22;6692;50.710;7.180;2023-09-30T01:36:54;14.60;99.90
13251;DHT22;6692;50.710;7.180;2023-09-30T01:38:54;14.60;99.90
13251;DHT22;6692;50.710;7.180;2023-09-30T01:40:55;14.60;99.90
13251;DHT22;6692;50.710;7.180;2023-09-30T01:42:56;14.60;99.90
13251;DHT22;6692;50.710;7.180;2023-09-30T01:44:57;14.50;99.90
13251;DHT22;6692;50.710;7.180;2023-09-30T01:46:57;14.50;99.90
13251;DHT22;6692;50.710;7.180;2023-09-30T01:48:58;14.50;99.90
13251;DHT22;6692;50.710;7.180;2023-09-30T01:50:59;14.50;99.90
13251;DHT22;6692;50.710;7.180;2023-09-30T01:53:00;14.50;99.90
13251;DHT22;6692;50.710;7.180;2023-09-30T01:55:00;14.60;99.90
13251;DHT22;6692;50.710;7.180;2023-09-30T01:57:01;14.70;99.90
13251;DHT22;6692;50.710;7.180;2023-09-30T01:59:03;14.60;99.90
13251;DHT22;6692;50.710;7.180;2023-09-30T02:01:03;14.60;99.90
13251;DHT22;6692;50.710;7.180;2023-09-30T02:03:05;14.60;99.90
13251;DHT22;6692;50.710;7.180;2023-09-30T02:05:06;14.50;99.90
13251;DHT22;6692;50.710;7.180;2023-09-30T02:07:09;14.50;99.90
13251;DHT22;6692;50.710;7.180;2023-09-30T02:09:11;14.50;99.90
13251;DHT22;6692;50.710;7.180;2023-09-30T02:11:11;14.50;99.90
13251;DHT22;6692;50.710;7.180;2023-09-30T02:13:12;14.50;99.90
13251;DHT22;6692;50.710;7.180;2023-09-30T02:15:13;14.50;99.90
13251;DHT22;6692;50.710;7.180;2023-09-30T02:17:14;14.40;99.90
13251;DHT22;6692;50.710;7.180;2023-09-30T02:19:16;14.40;99.90
13251;DHT22;6692;50.710;7.180;2023-09-30T02:21:16;14.40;99.90
13251;DHT22;6692;50.710;7.180;2023-09-30T02:23:17;14.40;99.90
13251;DHT22;6692;50.710;7.180;2023-09-30T02:25:18;14.50;99.90
13251;DHT22;6692;50.710;7.180;2023-09-30T02:27:19;14.50;99.90
13251;DHT22;6692;50.710;7.180;2023-09-30T02:29:19;14.50;99.90
13251;DHT22;6692;50.710;7.180;2023-09-30T02:31:21;14.60;99.90
13251;DHT22;6692;50.710;7.180;2023-09-30T02:33:22;14.60;99.90
13251;DHT22;6692;50.710;7.180;2023-09-30T02:35:23;14.60;99.90
13251;DHT22;6692;50.710;7.180;2023-09-30T02:37:24;14.60;99.90
13251;DHT22;6692;50.710;7.180;2023-09-30T02:39:24;14.60;99.90
13251;DHT22;6692;50.710;7.180;2023-09-30T02:41:25;14.60;99.90
13251;DHT22;6692;50.710;7.180;2023-09-30T02:43:27;14.70;99.90
13251;DHT22;6692;50.710;7.180;2023-09-30T02:45:27;14.70;99.90
13251;DHT22;6692;50.710;7.180;2023-09-30T02:47:28;14.70;99.90
13251;DHT22;6692;50.710;7.180;2023-09-30T02:49:32;14.80;99.90
13251;DHT22;6692;50.710;7.180;2023-09-30T02:51:30;14.80;99.90
13251;DHT22;6692;50.710;7.180;2023-09-30T02:53:31;14.80;99.90
13251;DHT22;6692;50.710;7.180;2023-09-30T02:55:33;14.80;99.90
13251;DHT22;6692;50.710;7.180;2023-09-30T02:57:34;14.80;99.90
13251;DHT22;6692;50.710;7.180;2023-09-30T02:59:35;14.80;99.90
13251;DHT22;6692;50.710;7.180;2023-09-30T03:01:36;14.90;99.90
13251;DHT22;6692;50.710;7.180;2023-09-30T03:03:38;14.90;99.90
13251;DHT22;6692;50.710;7.180;2023-09-30T03:05:39;14.90;99.90
13251;DHT22;6692;50.710;7.180;2023-09-30T03:07:40;14.90;99.90
13251;DHT22;6692;50.710;7.180;2023-09-30T03:09:41;14.90;99.90
13251;DHT22;6692;50.710;7.180;2023-09-30T03:11:41;14.90;99.90
13251;DHT22;6692;50.710;7.180;2023-09-30T03:13:43;14.90;99.90
13251;DHT22;6692;50.710;7.180;2023-09-30T03:15:44;14.90;99.90
13251;DHT22;6692;50.710;7.180;2023-09-30T03:17:45;14.80;99.90
13251;DHT22;6692;50.710;7.180;2023-09-30T03:19:45;14.80;99.90
13251;DHT22;6692;50.710;7.180;2023-09-30T03:21:46;14.80;99.90
13251;DHT22;6692;50.710;7.180;2023-09-30T03:23:47;14.70;99.90
13251;DHT22;6692;50.710;7.180;2023-09-30T03:25:48;14.70;99.90
13251;DHT22;6692;50.710;7.180;2023-09-30T03:27:49;14.70;99.90
13251;DHT22;6692;50.710;7.180;2023-09-30T03:29:50;14.70;99.90
13251;DHT22;6692;50.710;7.180;2023-09-30T03:31:51;14.70;99.90
13251;DHT22;6692;50.710;7.180;2023-09-30T03:33:52;14.70;99.90
13251;DHT22;6692;50.710;7.180;2023-09-30T03:35:54;14.60;99.90
13251;DHT22;6692;50.710;7.180;2023-09-30T03:37:55;14.60;99.90
13251;DHT22;6692;50.710;7.180;2023-09-30T03:39:56;14.60;99.90
13251;DHT22;6692;50.710;7.180;2023-09-30T03:41:56;14.60;99.90
13251;DHT22;6692;50.710;7.180;2023-09-30T03:43:57;14.50;99.90
13251;DHT22;6692;50.710;7.180;2023-09-30T03:45:59;14.50;99.90
13251;DHT22;6692;50.710;7.180;2023-09-30T03:48:00;14.50;99.90
13251;DHT22;6692;50.710;7.180;2023-09-30T03:50:01;14.50;99.90
13251;DHT22;6692;50.710;7.180;2023-09-30T03:52:02;14.50;99.90
13251;DHT22;6692;50.710;7.180;2023-09-30T03:54:03;14.60;99.90
13251;DHT22;6692;50.710;7.180;2023-09-30T03:56:04;14.60;99.90
13251;DHT22;6692;50.710;7.180;2023-09-30T03:58:05;14.60;99.90
13251;DHT22;6692;50.710;7.180;2023-09-30T04:00:06;14.60;99.90
13251;DHT22;6692;50.710;7.180;2023-09-30T04:02:07;14.50;99.90
13251;DHT22;6692;50.710;7.180;2023-09-30T04:04:08;14.40;99.90
13251;DHT22;6692;50.710;7.180;2023-09-30T04:06:10;14.30;99.90
13251;DHT22;6692;50.710;7.180;2023-09-30T04:08:11;14.30;99.90
13251;DHT22;6692;50.710;7.180;2023-09-30T04:10:11;14.20;99.90
13251;DHT22;6692;50.710;7.180;2023-09-30T04:12:12;14.20;99.90
13251;DHT22;6692;50.710;7.180;2023-09-30T04:14:13;14.30;99.90
13251;DHT22;6692;50.710;7.180;2023-09-30T04:16:14;14.30;99.90
13251;DHT22;6692;50.710;7.180;2023-09-30T04:18:15;14.30;99.90
13251;DHT22;6692;50.710;7.180;2023-09-30T04:20:16;14.20;99.90
13251;DHT22;6692;50.710;7.180;2023-09-30T04:22:18;14.20;99.90
13251;DHT22;6692;50.710;7.180;2023-09-30T04:24:19;14.20;99.90
13251;DHT22;6692;50.710;7.180;2023-09-30T04:26:19;14.20;99.90
13251;DHT22;6692;50.710;7.180;2023-09-30T04:28:20;14.20;99.90
13251;DHT22;6692;50.710;7.180;2023-09-30T04:30:21;14.20;99.90
13251;DHT22;6692;50.710;7.180;2023-09-30T04:32:22;14.20;99.90
13251;DHT22;6692;50.710;7.180;2023-09-30T04:34:22;14.20;99.90
13251;DHT22;6692;50.710;7.180;2023-09-30T04:36:23;14.30;99.90
13251;DHT22;6692;50.710;7.180;2023-09-30T04:38:24;14.20;99.90
13251;DHT22;6692;50.710;7.180;2023-09-30T04:40:25;14.10;99.90
13251;DHT22;6692;50.710;7.180;2023-09-30T04:42:25;14.00;99.90
13251;DHT22;6692;50.710;7.180;2023-09-30T04:44:26;14.00;99.90
13251;DHT22;6692;50.710;7.180;2023-09-30T04:46:27;14.00;99.90
13251;DHT22;6692;50.710;7.180;2023-09-30T04:48:28;14.00;99.90
13251;DHT22;6692;50.710;7.180;2023-09-30T04:50:28;13.90;99.90
13251;DHT22;6692;50.710;7.180;2023-09-30T04:52:29;13.90;99.90
13251;DHT22;6692;50.710;7.180;2023-09-30T04:54:31;13.90;99.90
13251;DHT22;6692;50.710;7.180;2023-09-30T04:56:32;13.90;99.90
13251;DHT22;6692;50.710;7.180;2023-09-30T04:58:33;13.80;99.90
13251;DHT22;6692;50.710;7.180;2023-09-30T05:00:34;13.70;99.90
13251;DHT22;6692;50.710;7.180;2023-09-30T05:02:35;13.70;99.90
13251;DHT22;6692;50.710;7.180;2023-09-30T05:04:36;13.70;99.90
13251;DHT22;6692;50.710;7.180;2023-09-30T05:06:37;13.70;99.90
13251;DHT22;6692;50.710;7.180;2023-09-30T05:08:38;13.60;99.90
13251;DHT22;6692;50.710;7.180;2023-09-30T05:10:39;13.60;99.90
13251;DHT22;6692;50.710;7.180;2023-09-30T05:12:40;13.50;99.90
13251;DHT22;6692;50.710;7.180;2023-09-30T05:14:41;13.50;99.90
13251;DHT22;6692;50.710;7.180;2023-09-30T05:16:41;13.50;99.90
13251;DHT22;6692;50.710;7.180;2023-09-30T05:18:42;13.50;99.90
13251;DHT22;6692;50.710;7.180;2023-09-30T05:20:43;13.50;99.90
13251;DHT22;6692;50.710;7.180;2023-09-30T05:22:44;13.40;99.90
13251;DHT22;6692;50.710;7.180;2023-09-30T05:24:45;13.40;99.90
13251;DHT22;6692;50.710;7.180;2023-09-30T05:26:47;13.40;99.90
13251;DHT22;6692;50.710;7.180;2023-09-30T05:28:48;13.40;99.90
13251;DHT22;6692;50.710;7.180;2023-09-30T05:30:49;13.40;99.90
13251;DHT22;6692;50.710;7.180;2023-09-30T05:32:50;13.40;99.90
13251;DHT22;6692;50.710;7.180;2023-09-30T05:34:51;13.40;99.90
13251;DHT22;6692;50.710;7.180;2023-09-30T05:36:52;13.40;99.90
13251;DHT22;6692;50.710;7.180;2023-09-30T05:38:54;13.50;99.90
13251;DHT22;6692;50.710;7.180;2023-09-30T05:40:54;13.40;99.90
13251;DHT22;6692;50.710;7.180;2023-09-30T05:42:55;13.40;99.90
13251;DHT22;6692;50.710;7.180;2023-09-30T05:44:56;13.50;99.90
13251;DHT22;6692;50.710;7.180;2023-09-30T05:46:57;13.50;99.90
13251;DHT22;6692;50.710;7.180;2023-09-30T05:48:57;13.50;99.90
13251;DHT22;6692;50.710;7.180;2023-09-30T05:50:58;13.60;99.90
13251;DHT22;6692;50.710;7.180;2023-09-30T05:52:59;13.60;99.90
13251;DHT22;6692;50.710;7.180;2023-09-30T05:55:01;13.70;99.90
13251;DHT22;6692;50.710;7.180;2023-09-30T05:57:01;13.80;99.90
13251;DHT22;6692;50.710;7.180;2023-09-30T05:59:01;13.80;99.90
13251;DHT22;6692;50.710;7.180;2023-09-30T06:01:02;13.90;99.90
13251;DHT22;6692;50.710;7.180;2023-09-30T06:03:03;13.90;99.90
13251;DHT22;6692;50.710;7.180;2023-09-30T06:05:10;14.10;99.90
13251;DHT22;6692;50.710;7.180;2023-09-30T06:07:11;14.10;99.90
13251;DHT22;6692;50.710;7.180;2023-09-30T06:09:12;14.10;99.90
13251;DHT22;6692;50.710;7.180;2023-09-30T06:11:16;14.10;99.90
13251;DHT22;6692;50.710;7.180;2023-09-30T06:13:17;14.10;99.90
13251;DHT22;6692;50.710;7.180;2023-09-30T06:15:17;14.20;99.90
13251;DHT22;6692;50.710;7.180;2023-09-30T06:17:18;14.30;99.90
13251;DHT22;6692;50.710;7.180;2023-09-30T06:19:19;14.30;99.90
13251;DHT22;6692;50.710;7.180;2023-09-30T06:21:21;14.40;99.90
13251;DHT22;6692;50.710;7.180;2023-09-30T06:23:22;14.50;99.90
13251;DHT22;6692;50.710;7.180;2023-09-30T06:25:23;14.40;99.90
13251;DHT22;6692;50.710;7.180;2023-09-30T06:27:24;14.50;99.90
13251;DHT22;6692;50.710;7.180;2023-09-30T06:29:25;14.70;99.90
13251;DHT22;6692;50.710;7.180;2023-09-30T06:31:27;14.90;99.90
13251;DHT22;6692;50.710;7.180;2023-09-30T06:33:27;14.80;99.90
13251;DHT22;6692;50.710;7.180;2023-09-30T06:35:28;14.90;99.90
13251;DHT22;6692;50.710;7.180;2023-09-30T06:37:29;15.00;99.90
13251;DHT22;6692;50.710;7.180;2023-09-30T06:39:30;15.10;99.90
13251;DHT22;6692;50.710;7.180;2023-09-30T06:41:31;15.10;99.90
13251;DHT22;6692;50.710;7.180;2023-09-30T06:43:32;15.10;99.90
13251;DHT22;6692;50.710;7.180;2023-09-30T06:45:34;15.30;99.90
13251;DHT22;6692;50.710;7.180;2023-09-30T06:47:34;15.20;99.90
13251;DHT22;6692;50.710;7.180;2023-09-30T06:49:35;15.30;99.90
13251;DHT22;6692;50.710;7.180;2023-09-30T06:51:36;15.30;99.90
13251;DHT22;6692;50.710;7.180;2023-09-30T06:53:37;15.30;99.90
13251;DHT22;6692;50.710;7.180;2023-09-30T06:55:38;15.40;99.90
13251;DHT22;6692;50.710;7.180;2023-09-30T06:57:39;15.50;99.90
13251;DHT22;6692;50.710;7.180;2023-09-30T06:59:40;15.60;99.90
13251;DHT22;6692;50.710;7.180;2023-09-30T07:01:41;15.60;99.90
13251;DHT22;6692;50.710;7.180;2023-09-30T07:03:42;15.80;99.90
13251;DHT22;6692;50.710;7.180;2023-09-30T07:05:44;15.90;99.90
13251;DHT22;6692;50.710;7.180;2023-09-30T07:07:45;15.80;99.90
13251;DHT22;6692;50.710;7.180;2023-09-30T07:09:45;15.90;99.90
13251;DHT22;6692;50.710;7.180;2023-09-30T07:11:46;16.10;99.90
13251;DHT22;6692;50.710;7.180;2023-09-30T07:13:47;16.20;99.90
13251;DHT22;6692;50.710;7.180;2023-09-30T07:15:48;16.30;99.90
13251;DHT22;6692;50.710;7.180;2023-09-30T07:17:49;16.30;99.90
13251;DHT22;6692;50.710;7.180;2023-09-30T07:19:49;16.30;99.90
13251;DHT22;6692;50.710;7.180;2023-09-30T07:21:50;16.40;99.90
13251;DHT22;6692;50.710;7.180;2023-09-30T07:23:51;16.40;99.90
13251;DHT22;6692;50.710;7.180;2023-09-30T07:25:52;16.50;99.90
13251;DHT22;6692;50.710;7.180;2023-09-30T07:27:52;16.60;99.90
13251;DHT22;6692;50.710;7.180;2023-09-30T07:29:53;16.60;99.90
13251;DHT22;6692;50.710;7.180;2023-09-30T07:31:55;16.70;99.90
13251;DHT22;6692;50.710;7.180;2023-09-30T07:33:55;16.70;99.90
13251;DHT22;6692;50.710;7.180;2023-09-30T07:35:57;16.70;99.90
13251;DHT22;6692;50.710;7.180;2023-09-30T07:37:58;16.80;99.90
13251;DHT22;6692;50.710;7.180;2023-09-30T07:40:00;16.80;99.90
13251;DHT22;6692;50.710;7.180;2023-09-30T07:42:01;16.80;99.90
13251;DHT22;6692;50.710;7.180;2023-09-30T07:44:02;16.80;99.90
13251;DHT22;6692;50.710;7.180;2023-09-30T07:46:06;16.70;99.90
13251;DHT22;6692;50.710;7.180;2023-09-30T07:48:07;16.70;99.90
13251;DHT22;6692;50.710;7.180;2023-09-30T07:50:08;16.70;99.90
13251;DHT22;6692;50.710;7.180;2023-09-30T07:52:09;16.60;99.90
13251;DHT22;6692;50.710;7.180;2023-09-30T07:54:10;16.60;99.90
13251;DHT22;6692;50.710;7.180;2023-09-30T07:56:12;16.40;99.90
13251;DHT22;6692;50.710;7.180;2023-09-30T07:58:12;16.40;99.90
13251;DHT22;6692;50.710;7.180;2023-09-30T08:00:14;16.40;99.90
13251;DHT22;6692;50.710;7.180;2023-09-30T08:02:15;16.30;99.90
13251;DHT22;6692;50.710;7.180;2023-09-30T08:04:17;16.20;99.90
13251;DHT22;6692;50.710;7.180;2023-09-30T08:06:18;16.20;99.90
13251;DHT22;6692;50.710;7.180;2023-09-30T08:08:19;16.10;99.90
13251;DHT22;6692;50.710;7.180;2023-09-30T08:10:19;16.00;99.90
13251;DHT22;6692;50.710;7.180;2023-09-30T08:12:20;15.90;99.90
13251;DHT22;6692;50.710;7.180;2023-09-30T08:14:21;15.90;99.90
13251;DHT22;6692;50.710;7.180;2023-09-30T08:16:21;15.90;99.90
13251;DHT22;6692;50.710;7.180;2023-09-30T08:18:22;15.80;99.90
13251;DHT22;6692;50.710;7.180;2023-09-30T08:20:23;15.80;99.90
13251;DHT22;6692;50.710;7.180;2023-09-30T08:22:24;15.80;99.90
13251;DHT22;6692;50.710;7.180;2023-09-30T08:24:24;15.80;99.90
13251;DHT22;6692;50.710;7.180;2023-09-30T08:26:25;15.80;99.90
13251;DHT22;6692;50.710;7.180;2023-09-30T08:28:26;15.90;99.90
13251;DHT22;6692;50.710;7.180;2023-09-30T08:30:27;15.80;99.90
13251;DHT22;6692;50.710;7.180;2023-09-30T08:32:27;15.90;99.90
13251;DHT22;6692;50.710;7.180;2023-09-30T08:34:28;15.90;99.90
13251;DHT22;6692;50.710;7.180;2023-09-30T08:36:29;15.90;99.90
13251;DHT22;6692;50.710;7.180;2023-09-30T08:38:30;15.90;99.90
13251;DHT22;6692;50.710;7.180;2023-09-30T08:40:30;15.90;99.90
13251;DHT22;6692;50.710;7.180;2023-09-30T08:42:32;15.90;99.90
13251;DHT22;6692;50.710;7.180;2023-09-30T08:44:32;15.90;99.90
13251;DHT22;6692;50.710;7.180;2023-09-30T08:46:33;16.00;99.90
13251;DHT22;6692;50.710;7.180;2023-09-30T08:48:34;16.00;99.90
13251;DHT22;6692;50.710;7.180;2023-09-30T08:50:35;16.10;99.90
13251;DHT22;6692;50.710;7.180;2023-09-30T08:52:37;16.10;99.90
13251;DHT22;6692;50.710;7.180;2023-09-30T08:54:38;16.10;99.90
13251;DHT22;6692;50.710;7.180;2023-09-30T08:56:38;16.10;99.90
13251;DHT22;6692;50.710;7.180;2023-09-30T08:58:39;16.10;99.90
13251;DHT22;6692;50.710;7.180;2023-09-30T09:00:40;16.10;99.90
13251;DHT22;6692;50.710;7.180;2023-09-30T09:02:41;16.20;99.90
13251;DHT22;6692;50.710;7.180;2023-09-30T09:04:42;16.10;99.90
13251;DHT22;6692;50.710;7.180;2023-09-30T09:06:42;16.20;99.90
13251;DHT22;6692;50.710;7.180;2023-09-30T09:08:43;16.20;99.90
13251;DHT22;6692;50.710;7.180;2023-09-30T09:11:00;16.30;99.90
13251;DHT22;6692;50.710;7.180;2023-09-30T09:13:00;16.30;99.90
13251;DHT22;6692;50.710;7.180;2023-09-30T09:15:01;16.30;99.90
13251;DHT22;6692;50.710;7.180;2023-09-30T09:17:02;16.40;99.90
13251;DHT22;6692;50.710;7.180;2023-09-30T09:19:13;16.40;99.90
13251;DHT22;6692;50.710;7.180;2023-09-30T09:21:16;16.40;99.90
13251;DHT22;6692;50.710;7.180;2023-09-30T09:23:16;16.40;99.90
13251;DHT22;6692;50.710;7.180;2023-09-30T09:25:16;16.50;99.90
13251;DHT22;6692;50.710;7.180;2023-09-30T09:27:18;16.50;99.90
13251;DHT22;6692;50.710;7.180;2023-09-30T09:29:20;16.50;99.90
13251;DHT22;6692;50.710;7.180;2023-09-30T09:31:22;16.60;99.90
13251;DHT22;6692;50.710;7.180;2023-09-30T09:33:23;16.60;99.90
13251;DHT22;6692;50.710;7.180;2023-09-30T09:35:23;16.60;99.90
13251;DHT22;6692;50.710;7.180;2023-09-30T09:37:25;16.60;99.90
13251;DHT22;6692;50.710;7.180;2023-09-30T09:39:29;16.70;99.90
13251;DHT22;6692;50.710;7.180;2023-09-30T09:41:29;16.70;99.90
13251;DHT22;6692;50.710;7.180;2023-09-30T09:43:31;16.70;99.90
13251;DHT22;6692;50.710;7.180;2023-09-30T09:45:34;16.80;99.90
13251;DHT22;6692;50.710;7.180;2023-09-30T09:47:34;16.80;99.90
13251;DHT22;6692;50.710;7.180;2023-09-30T09:49:35;16.80;99.90
13251;DHT22;6692;50.710;7.180;2023-09-30T09:51:35;16.90;99.90
13251;DHT22;6692;50.710;7.180;2023-09-30T09:53:36;16.90;99.90
13251;DHT22;6692;50.710;7.180;2023-09-30T09:55:37;16.90;99.90
13251;DHT22;6692;50.710;7.180;2023-09-30T09:57:38;16.90;99.90
13251;DHT22;6692;50.710;7.180;2023-09-30T09:59:39;16.90;99.90
13251;DHT22;6692;50.710;7.180;2023-09-30T10:01:40;17.00;99.90
13251;DHT22;6692;50.710;7.180;2023-09-30T10:03:40;17.00;99.90
13251;DHT22;6692;50.710;7.180;2023-09-30T10:05:41;17.10;99.90
13251;DHT22;6692;50.710;7.180;2023-09-30T10:07:47;17.20;99.90
13251;DHT22;6692;50.710;7.180;2023-09-30T10:09:46;17.30;99.90
13251;DHT22;6692;50.710;7.180;2023-09-30T10:11:47;17.50;99.90
13251;DHT22;6692;50.710;7.180;2023-09-30T10:13:58;17.50;99.90
13251;DHT22;6692;50.710;7.180;2023-09-30T10:15:58;17.60;99.90
13251;DHT22;6692;50.710;7.180;2023-09-30T10:18:03;17.60;99.90
13251;DHT22;6692;50.710;7.180;2023-09-30T10:20:05;17.60;99.90
13251;DHT22;6692;50.710;7.180;2023-09-30T10:22:19;17.60;99.90
13251;DHT22;6692;50.710;7.180;2023-09-30T10:24:30;17.60;99.90
13251;DHT22;6692;50.710;7.180;2023-09-30T10:26:30;17.60;99.90
13251;DHT22;6692;50.710;7.180;2023-09-30T10:28:37;17.60;99.90
13251;DHT22;6692;50.710;7.180;2023-09-30T10:30:37;17.60;99.90
13251;DHT22;6692;50.710;7.180;2023-09-30T10:35:05;17.60;99.90
13251;DHT22;6692;50.710;7.180;2023-09-30T10:39:52;17.50;99.90
13251;DHT22;6692;50.710;7.180;2023-09-30T10:43:35;17.50;99.90
13251;DHT22;6692;50.710;7.180;2023-09-30T10:45:44;17.50;99.90
13251;DHT22;6692;50.710;7.180;2023-09-30T10:47:44;17.50;99.90
13251;DHT22;6692;50.710;7.180;2023-09-30T10:49:45;17.50;99.90
13251;DHT22;6692;50.710;7.180;2023-09-30T10:51:46;17.60;99.90
13251;DHT22;6692;50.710;7.180;2023-09-30T10:53:51;17.60;99.90
13251;DHT22;6692;50.710;7.180;2023-09-30T10:55:58;17.60;99.90
13251;DHT22;6692;50.710;7.180;2023-09-30T10:57:58;17.60;99.90
13251;DHT22;6692;50.710;7.180;2023-09-30T11:00:08;17.60;99.90
13251;DHT22;6692;50.710;7.180;2023-09-30T11:02:19;17.70;99.90
13251;DHT22;6692;50.710;7.180;2023-09-30T11:04:20;17.70;99.90
13251;DHT22;6692;50.710;7.180;2023-09-30T11:06:20;17.80;99.90
13251;DHT22;6692;50.710;7.180;2023-09-30T11:08:21;17.80;99.90
13251;DHT22;6692;50.710;7.180;2023-09-30T11:10:22;17.80;99.90
13251;DHT22;6692;50.710;7.180;2023-09-30T11:12:23;17.90;99.90
13251;DHT22;6692;50.710;7.180;2023-09-30T11:14:27;18.00;99.90
13251;DHT22;6692;50.710;7.180;2023-09-30T11:16:28;17.90;99.90
13251;DHT22;6692;50.710;7.180;2023-09-30T11:18:28;18.10;99.90
13251;DHT22;6692;50.710;7.180;2023-09-30T11:20:29;18.30;99.90
13251;DHT22;6692;50.710;7.180;2023-09-30T11:22:30;18.40;99.90
13251;DHT22;6692;50.710;7.180;2023-09-30T11:24:34;18.50;99.90
13251;DHT22;6692;50.710;7.180;2023-09-30T11:26:32;18.50;99.90
13251;DHT22;6692;50.710;7.180;2023-09-30T11:28:38;18.50;99.90
13251;DHT22;6692;50.710;7.180;2023-09-30T11:30:52;18.50;99.90
13251;DHT22;6692;50.710;7.180;2023-09-30T11:32:38;18.50;99.90
13251;DHT22;6692;50.710;7.180;2023-09-30T11:34:39;18.50;99.90
13251;DHT22;6692;50.710;7.180;2023-09-30T11:36:41;18.50;99.90
13251;DHT22;6692;50.710;7.180;2023-09-30T11:38:44;18.50;99.90
13251;DHT22;6692;50.710;7.180;2023-09-30T11:40:56;18.40;99.90
13251;DHT22;6692;50.710;7.180;2023-09-30T11:42:42;18.30;99.90
13251;DHT22;6692;50.710;7.180;2023-09-30T11:44:44;18.20;99.90
13251;DHT22;6692;50.710;7.180;2023-09-30T11:46:51;18.20;99.90
13251;DHT22;6692;50.710;7.180;2023-09-30T11:48:58;18.20;99.90
13251;DHT22;6692;50.710;7.180;2023-09-30T11:50:59;18.20;99.90
13251;DHT22;6692;50.710;7.180;2023-09-30T11:53:00;18.20;99.90
13251;DHT22;6692;50.710;7.180;2023-09-30T11:55:00;18.30;99.90
13251;DHT22;6692;50.710;7.180;2023-09-30T11:57:01;18.30;99.90
13251;DHT22;6692;50.710;7.180;2023-09-30T11:59:03;18.40;99.90
13251;DHT22;6692;50.710;7.180;2023-09-30T12:01:03;18.40;99.90
13251;DHT22;6692;50.710;7.180;2023-09-30T12:03:04;18.50;99.90
13251;DHT22;6692;50.710;7.180;2023-09-30T12:05:05;18.60;99.90
13251;DHT22;6692;50.710;7.180;2023-09-30T12:07:06;18.60;99.90
13251;DHT22;6692;50.710;7.180;2023-09-30T12:09:07;18.70;99.90
13251;DHT22;6692;50.710;7.180;2023-09-30T12:11:08;18.80;99.90
13251;DHT22;6692;50.710;7.180;2023-09-30T12:13:09;18.80;99.90
13251;DHT22;6692;50.710;7.180;2023-09-30T12:15:10;18.80;99.90
13251;DHT22;6692;50.710;7.180;2023-09-30T12:17:10;18.70;99.90
13251;DHT22;6692;50.710;7.180;2023-09-30T12:19:11;18.70;99.90
13251;DHT22;6692;50.710;7.180;2023-09-30T12:21:12;18.70;99.90
13251;DHT22;6692;50.710;7.180;2023-09-30T12:23:13;18.80;99.90
13251;DHT22;6692;50.710;7.180;2023-09-30T12:25:14;18.80;99.90
13251;DHT22;6692;50.710;7.180;2023-09-30T12:27:16;19.00;99.90
13251;DHT22;6692;50.710;7.180;2023-09-30T12:29:18;19.10;99.90
13251;DHT22;6692;50.710;7.180;2023-09-30T12:31:18;19.10;99.90
13251;DHT22;6692;50.710;7.180;2023-09-30T12:33:19;19.40;99.90
13251;DHT22;6692;50.710;7.180;2023-09-30T12:35:19;19.80;99.90
13251;DHT22;6692;50.710;7.180;2023-09-30T12:37:20;20.00;99.90
13251;DHT22;6692;50.710;7.180;2023-09-30T12:39:21;20.40;99.90
13251;DHT22;6692;50.710;7.180;2023-09-30T12:41:22;21.10;99.90
13251;DHT22;6692;50.710;7.180;2023-09-30T12:43:23;21.00;99.90
13251;DHT22;6692;50.710;7.180;2023-09-30T12:45:24;21.20;99.90
13251;DHT22;6692;50.710;7.180;2023-09-30T12:47:26;21.50;99.90
13251;DHT22;6692;50.710;7.180;2023-09-30T12:49:26;21.40;99.90
13251;DHT22;6692;50.710;7.180;2023-09-30T12:51:28;21.70;99.90
13251;DHT22;6692;50.710;7.180;2023-09-30T12:53:29;21.70;99.90
13251;DHT22;6692;50.710;7.180;2023-09-30T12:55:29;22.00;99.90
13251;DHT22;6692;50.710;7.180;2023-09-30T12:57:30;22.20;99.90
13251;DHT22;6692;50.710;7.180;2023-09-30T12:59:31;22.40;99.90
13251;DHT22;6692;50.710;7.180;2023-09-30T13:01:32;22.60;99.90
13251;DHT22;6692;50.710;7.180;2023-09-30T13:03:33;22.50;99.90